Max, Nebraska
Current Conditions -  °F | °C
As of 3:53 AM on Friday 28 Nov 2014 (Local Time) from KIML Reporting Station
Clear Clear  
Wind Chill: 33°   Ceiling: Unl
Heat Index: 39°   Visibility: 10mi
Dew Point: 24°   Wind: 9mph
Humidity: 55%   Direction: 260°W
Pressure: 29.92"   Gusts: NA
Location:  40.11°N, 101.4°W
Report Text: KIML 281053Z AUTO 26008KT 10SM CLR 04/M04 A2992 RMK AO2 SLP134 T00391044
Loading
Personal Weather Stations






























Interactive Weather Map New forecast layout! Learn more

10-Day Weather Forecast

Advertisements
Track Severe Weather on mobile